sensor_id;sensor_type;location;lat;lon;timestamp;pressure;altitude;pressure_sealevel;temperature;humidity
46724;BME280;32463;48.298;11.620;2023-02-03T16:06:51;96948.84;;;5.61;100.00
46724;BME280;32463;48.298;11.620;2023-02-03T16:12:02;96963.34;;;5.62;100.00
46724;BME280;32463;48.298;11.620;2023-02-03T16:14:32;96964.28;;;5.61;100.00
46724;BME280;32463;48.298;11.620;2023-02-03T16:16:58;96952.13;;;5.63;100.00
46724;BME280;32463;48.298;11.620;2023-02-03T16:19:28;96968.28;;;5.65;100.00
46724;BME280;32463;48.298;11.620;2023-02-03T16:21:57;96969.09;;;5.65;100.00
46724;BME280;32463;48.298;11.620;2023-02-03T16:24:41;96982.56;;;5.69;100.00
46724;BME280;32463;48.298;11.620;2023-02-03T16:35:51;97002.50;;;5.54;100.00
46724;BME280;32463;48.298;11.620;2023-02-03T16:38:35;97012.78;;;5.54;100.00
46724;BME280;32463;48.298;11.620;2023-02-03T16:41:19;97009.03;;;5.47;100.00
46724;BME280;32463;48.298;11.620;2023-02-03T16:44:03;97014.28;;;5.46;100.00
46724;BME280;32463;48.298;11.620;2023-02-03T16:46:48;97030.75;;;5.43;100.00
46724;BME280;32463;48.298;11.620;2023-02-03T16:49:32;97016.25;;;5.42;100.00
46724;BME280;32463;48.298;11.620;2023-02-03T16:52:16;97028.72;;;5.35;100.00
46724;BME280;32463;48.298;11.620;2023-02-03T16:54:43;97030.13;;;5.39;100.00
46724;BME280;32463;48.298;11.620;2023-02-03T16:57:09;97027.06;;;5.34;100.00
46724;BME280;32463;48.298;11.620;2023-02-03T16:59:35;97010.72;;;5.35;100.00
46724;BME280;32463;48.298;11.620;2023-02-03T17:02:02;97012.69;;;5.32;100.00
46724;BME280;32463;48.298;11.620;2023-02-03T17:04:28;97020.72;;;5.27;100.00
46724;BME280;32463;48.298;11.620;2023-02-03T17:06:55;97025.84;;;5.27;100.00
46724;BME280;32463;48.298;11.620;2023-02-03T17:09:21;97031.44;;;5.21;100.00
46724;BME280;32463;48.298;11.620;2023-02-03T17:11:49;97010.63;;;5.13;100.00
46724;BME280;32463;48.298;11.620;2023-02-03T17:14:16;97024.38;;;5.12;100.00
46724;BME280;32463;48.298;11.620;2023-02-03T17:16:42;96999.84;;;5.08;100.00
46724;BME280;32463;48.298;11.620;2023-02-03T17:19:10;97012.16;;;5.16;100.00
46724;BME280;32463;48.298;11.620;2023-02-03T17:21:37;97036.56;;;5.21;100.00
46724;BME280;32463;48.298;11.620;2023-02-03T17:24:03;97025.84;;;5.27;100.00
46724;BME280;32463;48.298;11.620;2023-02-03T17:26:30;97016.41;;;5.28;100.00
46724;BME280;32463;48.298;11.620;2023-02-03T17:28:58;97021.16;;;5.21;100.00
46724;BME280;32463;48.298;11.620;2023-02-03T17:31:28;97019.75;;;5.17;100.00
46724;BME280;32463;48.298;11.620;2023-02-03T17:33:55;97019.97;;;5.14;100.00
46724;BME280;32463;48.298;11.620;2023-02-03T17:36:22;97010.72;;;5.12;100.00
46724;BME280;32463;48.298;11.620;2023-02-03T17:38:51;97027.19;;;5.09;100.00
46724;BME280;32463;48.298;11.620;2023-02-03T17:41:20;97012.91;;;5.05;100.00
46724;BME280;32463;48.298;11.620;2023-02-03T17:43:47;97007.53;;;5.08;100.00
46724;BME280;32463;48.298;11.620;2023-02-03T17:46:19;97035.00;;;5.07;100.00
46724;BME280;32463;48.298;11.620;2023-02-03T17:48:47;97013.00;;;5.03;100.00
46724;BME280;32463;48.298;11.620;2023-02-03T17:51:18;97018.97;;;5.04;100.00
46724;BME280;32463;48.298;11.620;2023-02-03T17:53:47;97010.31;;;5.05;100.00
46724;BME280;32463;48.298;11.620;2023-02-03T17:56:18;97029.03;;;5.07;100.00
46724;BME280;32463;48.298;11.620;2023-02-03T17:58:45;97007.03;;;5.03;100.00
46724;BME280;32463;48.298;11.620;2023-02-03T18:01:16;97007.47;;;4.97;100.00
46724;BME280;32463;48.298;11.620;2023-02-03T18:03:48;97010.25;;;4.94;100.00
46724;BME280;32463;48.298;11.620;2023-02-03T18:06:18;97031.13;;;4.89;100.00
46724;BME280;32463;48.298;11.620;2023-02-03T18:08:46;97030.94;;;4.80;100.00
46724;BME280;32463;48.298;11.620;2023-02-03T18:11:13;97015.34;;;4.70;100.00
46724;BME280;32463;48.298;11.620;2023-02-03T18:13:43;97022.44;;;4.66;100.00
46724;BME280;32463;48.298;11.620;2023-02-03T18:16:15;97031.78;;;4.67;100.00
46724;BME280;32463;48.298;11.620;2023-02-03T18:18:44;97023.78;;;4.59;100.00
46724;BME280;32463;48.298;11.620;2023-02-03T18:21:12;97016.78;;;4.61;100.00
46724;BME280;32463;48.298;11.620;2023-02-03T18:23:39;97022.47;;;4.54;100.00
46724;BME280;32463;48.298;11.620;2023-02-03T18:26:08;97014.34;;;4.47;100.00
46724;BME280;32463;48.298;11.620;2023-02-03T18:28:36;97019.50;;;4.47;100.00
46724;BME280;32463;48.298;11.620;2023-02-03T18:31:11;96997.50;;;4.56;100.00
46724;BME280;32463;48.298;11.620;2023-02-03T18:33:40;96981.69;;;4.49;100.00
46724;BME280;32463;48.298;11.620;2023-02-03T18:36:07;96990.75;;;4.42;100.00
46724;BME280;32463;48.298;11.620;2023-02-03T18:38:35;96934.06;;;4.45;100.00
46724;BME280;32463;48.298;11.620;2023-02-03T18:41:08;96937.75;;;4.41;100.00
46724;BME280;32463;48.298;11.620;2023-02-03T18:43:35;96947.59;;;4.47;100.00
46724;BME280;32463;48.298;11.620;2023-02-03T18:46:08;96964.56;;;4.37;100.00
46724;BME280;32463;48.298;11.620;2023-02-03T18:48:35;96979.66;;;4.42;100.00
46724;BME280;32463;48.298;11.620;2023-02-03T18:51:02;96961.38;;;4.33;100.00
46724;BME280;32463;48.298;11.620;2023-02-03T18:53:28;96965.91;;;4.30;100.00
46724;BME280;32463;48.298;11.620;2023-02-03T18:55:56;96967.78;;;4.28;100.00
46724;BME280;32463;48.298;11.620;2023-02-03T18:58:22;96960.38;;;4.23;100.00
46724;BME280;32463;48.298;11.620;2023-02-03T19:00:49;96967.78;;;4.28;100.00
46724;BME280;32463;48.298;11.620;2023-02-03T19:03:15;96961.59;;;4.30;100.00
46724;BME280;32463;48.298;11.620;2023-02-03T19:05:42;96965.09;;;4.17;100.00
46724;BME280;32463;48.298;11.620;2023-02-03T19:08:08;96961.91;;;4.13;100.00
46724;BME280;32463;48.298;11.620;2023-02-03T19:10:35;96949.09;;;4.26;100.00
46724;BME280;32463;48.298;11.620;2023-02-03T19:13:02;96946.63;;;4.24;100.00
46724;BME280;32463;48.298;11.620;2023-02-03T19:15:28;96928.13;;;4.32;100.00
46724;BME280;32463;48.298;11.620;2023-02-03T19:17:55;96940.22;;;4.30;100.00
46724;BME280;32463;48.298;11.620;2023-02-03T19:20:21;96954.00;;;4.29;100.00
46724;BME280;32463;48.298;11.620;2023-02-03T19:22:48;96975.34;;;4.29;100.00
46724;BME280;32463;48.298;11.620;2023-02-03T19:25:15;96985.03;;;4.26;100.00
46724;BME280;32463;48.298;11.620;2023-02-03T19:27:42;96981.53;;;4.27;100.00
46724;BME280;32463;48.298;11.620;2023-02-03T19:30:09;96967.97;;;4.25;100.00
46724;BME280;32463;48.298;11.620;2023-02-03T19:32:35;96962.91;;;4.36;100.00
46724;BME280;32463;48.298;11.620;2023-02-03T19:35:02;96963.31;;;4.30;100.00
46724;BME280;32463;48.298;11.620;2023-02-03T19:37:29;96982.84;;;4.32;100.00
46724;BME280;32463;48.298;11.620;2023-02-03T19:39:55;97003.47;;;4.31;100.00
46724;BME280;32463;48.298;11.620;2023-02-03T19:42:21;96997.75;;;4.27;100.00
46724;BME280;32463;48.298;11.620;2023-02-03T19:44:48;96977.31;;;4.26;100.00
46724;BME280;32463;48.298;11.620;2023-02-03T19:47:15;96965.91;;;4.30;100.00
46724;BME280;32463;48.298;11.620;2023-02-03T19:49:42;96975.97;;;4.33;100.00
46724;BME280;32463;48.298;11.620;2023-02-03T19:52:08;96966.41;;;4.35;100.00
46724;BME280;32463;48.298;11.620;2023-02-03T19:54:36;96990.44;;;4.34;100.00
46724;BME280;32463;48.298;11.620;2023-02-03T19:57:02;96999.78;;;4.35;100.00
